Tiempo atmosférico en la estación meteorológica de Melilla, Melilla (47 m.)



Fecha
DESCASC
Temp. máxima en grados centígrados (hora)
DESCASC
Temp. mínima en grados centígrados (hora)
DESCASC
Temp. media en grados centígrados
DESCASC
Racha de viento máxima en m/sg (hora)
DESCASC
Velocidad máxima media en intervalos de 10 minutos(hora)
DESCASC
Precipitaciones diarias en mm
DESCASC
Precipitaciones de 00:00 a 06:00 en mm
DESCASC
Precipitaciones de 06:00 a 12:00 en mm
DESCASC
Precipitaciones de 12:00 a 18:00 en mm
DESCASC
Precipitaciones de 18:00 a 24:00 en mm
DESCASC
22-04-2019 21.2 (16:50) 13.7 (00:10) 17.5 15.28 (15:00) 7.78 (12:20) 0 0 0 0 0
21-04-2019 15.7 (10:00) 13.3 (14:30) 14.5 11.11 (12:40) 7.5 (12:00) 3.8 0 0 3.6 0.2
20-04-2019 19.5 (14:00) 11 (06:00) 15.3 8.06 (15:00) 5.83 (14:50) -- 0 0 -- 0
19-04-2019 20 (13:40) 13 (07:40) 16.5 8.33 (16:10) 6.39 (15:50) 0 0 0 0 0
18-04-2019 17.4 (19:00) 13.1 (00:00) 15.3 8.61 (09:50) 5 (09:40) 9 0 4.6 4.2 0.2
17-04-2019 18.4 (12:50) 16.1 (00:00) 17.3 10 (13:20) 7.22 (13:30) 0 0 0 0 0
16-04-2019 22.1 (12:40) 16.6 (00:00) 19.4 13.06 (00:40) 8.33 (00:40) 0 0 0 0 0
15-04-2019 28 (14:00) 15 (00:00) 21.5 15 (23:40) 8.61 (23:10) 0 0 0 0 0
14-04-2019 23.9 (14:00) 13.2 (00:00) 18.5 6.11 (15:30) 4.17 (14:20) 0 0 0 0 0
13-04-2019 24.1 (14:40) 11.9 (00:00) 18 7.5 (16:30) 4.17 (09:40) 0 0 0 0 0
12-04-2019 21.5 (16:10) 14.4 (00:00) 17.9 9.72 (15:40) 5.28 (01:10) 0 0 0 0 0
11-04-2019 20.6 (16:10) 14.9 (00:00) 17.8 11.94 (00:40) 6.11 (00:10) 0 0 0 0 0
10-04-2019 18.5 (13:00) 13.9 (00:00) 16.2 15.56 (18:00) 7.78 (12:20) 0 0 0 0 0
09-04-2019 19.3 (16:50) 14.4 (00:00) 16.8 11.67 (23:00) 5.83 (03:30) 0 0 0 0 0
08-04-2019 22.3 (15:10) 12.5 (00:00) 17.4 10 (19:40) 5.56 (22:40) 0 0 0 0 0
07-04-2019 19.6 (16:10) 13 (00:00) 16.3 11.39 (01:50) 4.44 (00:40) 0.8 0 0.8 0 0
06-04-2019 18.3 (16:00) 10.9 (00:00) 14.6 12.22 (05:00) 5.83 (02:30) 4.6 0.2 4.4 0 0
05-04-2019 21 (13:30) 11.5 (00:00) 16.3 13.33 (17:00) 7.78 (19:40) 8.6 1 0 6.4 1.2
04-04-2019 18.9 (12:10) 13.7 (00:00) 16.3 11.11 (12:50) 5.83 (09:30) 0.6 0 0 0 0.6
03-04-2019 21 (15:00) 13.1 (00:00) 17.1 8.89 (18:00) 5.28 (20:20) 0 0 0 0 0
02-04-2019 19.1 (16:50) 12.2 (00:00) 15.7 5.83 (15:20) 3.89 (14:30) 0 0 0 0 0
01-04-2019 -- (--) -- (--) -- 6.11 (17:30) 4.72 (16:40) 0.2 0.2 0 0 0
31-03-2019 -- (--) -- (--) -- -- (--) -- (--) 43.2 1 41.4 0.8 0
30-03-2019 16.2 (12:00) 14.4 (00:00) 15.3 11.11 (12:10) 8.06 (11:50) 0 0 0 0 0
29-03-2019 16.8 (13:40) 13.8 (00:00) 15.3 10 (00:30) 6.39 (12:20) 0 0 0 0 0
28-03-2019 17.3 (14:40) 12.6 (00:00) 14.9 12.22 (17:30) 8.33 (16:50) 0 0 0 0 0
27-03-2019 16.3 (12:50) 13 (00:00) 14.6 17.22 (01:20) 11.39 (02:00) 1.4 0.4 1 0 0
26-03-2019 16.6 (12:50) 14.7 (00:00) 15.7 15.28 (22:20) 10 (19:20) 0 0 0 0 0
25-03-2019 17.6 (15:40) 13.6 (00:00) 15.6 7.5 (13:10) 5 (12:50) 0 0 0 0 0

Gráficas

Temp. máximas Temp. mínimas Temp. medias Precipitaciones Rachas de viento máximas Velocidades máximas media en intervalos de 10 minutos

Datos horarios

Fecha y hora oficial Temperatura (ºC) Velocidad del viento (km/h) Dirección del viento Racha (km/h) Dirección de racha Precipitación (mm) Presión (hPa) Tendencia (hPa) Humedad (%)
2019-04-23 23:00:00 14.8 11 Oeste 27 Oeste 0 1003.4 2.5 69
2019-04-23 22:00:00 14.8 17 Oeste 33 Oeste 0 1002.4 1.9 67
2019-04-23 21:00:00 14.7 13 Oeste 29 Oeste 0 1001.3 1.9 70
2019-04-23 20:00:00 14.5 17 Oeste 30 Sudoeste 0 1000.9 1.8 73
2019-04-23 19:00:00 14.6 18 Oeste 45 Oeste 0 1000.5 1 71
2019-04-23 18:00:00 15.4 22 Oeste 49 Noroeste 0 999.4 0.7 64
2019-04-23 17:00:00 15.2 22 Oeste 45 Noroeste 0 999.1 0.6 67
2019-04-23 16:00:00 14.8 21 Oeste 49 Oeste 0 999.5 2 68
2019-04-23 15:00:00 15.3 14 Oeste 34 Oeste 0 998.7 2.1 67
2019-04-23 14:00:00 15.8 14 Oeste 44 Oeste 0 998.5 2.2 76
2019-04-23 13:00:00 19.4 13 Oeste 34 Oeste 0 997.5 1.5 58
2019-04-23 12:00:00 20.2 15 Sudoeste 27 Sur 0 996.6 0.1 45
2019-04-23 11:00:00 19.3 14 Sudoeste 25 Sudoeste 0 996.3 -0.4 48
2019-04-23 10:00:00 17.5 4 Nordeste 12 Este 0 996 -0.3 67
2019-04-23 09:00:00 15.8 6 Noroeste 9 Noroeste 0.2 996.5 -0.3 77
2019-04-23 08:00:00 13.9 4 Noroeste 8 Sudoeste 0 996.7 -0.2 82
2019-04-23 07:00:00 14.4 0 Calma 13 Sudoeste 0 996.3 -0.6 84
2019-04-23 06:00:00 15.6 10 Sudoeste 15 Sudoeste 0 996.8 -0.7 79
2019-04-23 05:00:00 15.9 8 Sudoeste 19 Oeste 0 996.9 -1.2 78
2019-04-23 04:00:00 16.1 12 Sudoeste 18 Oeste 0 996.9 -1.4 77
2019-04-23 03:00:00 16.1 10 Oeste 15 Sudoeste 0 997.5 -1.2 76
2019-04-23 02:00:00 16.3 9 Sudoeste 21 Sudoeste 0 998.1 -0.7 75
2019-04-23 01:00:00 16.9 13 Oeste 25 Oeste 0 998.3 -0.2 73
2019-04-23 00:00:00 17.1 12 Oeste 22 Oeste 0 998.7 0.8 72
2019-04-22 23:00:00 17.6 13 Oeste 27 Sudoeste 0 998.8 1.2 70
2019-04-22 22:00:00 18.2 14 Sudoeste 32 Oeste 0 998.5 1 67
2019-04-22 21:00:00 18.6 16 Oeste 35 Oeste 0 997.9 0.6 66
2019-04-22 20:00:00 19.4 14 Oeste 36 Oeste 0 997.6 0.3 64
2019-04-22 19:00:00 20.5 11 Oeste 36 Oeste 0 997.5 0.2 61
2019-04-22 18:00:00 20.6 12 Oeste 40 Oeste 0 997.3 -0.4 61
2019-04-22 17:00:00 20.9 17 Oeste 47 Sudoeste 0 997.3 -0.7 57
2019-04-22 16:00:00 21 14 Oeste 48 Oeste 0 997.3 -1.3 56
2019-04-22 15:00:00 20.3 17 Oeste 55 Oeste 0 997.7 -1 60
2019-04-22 14:00:00 20.2 14 Oeste 43 Oeste 0 998 -0.2 60
2019-04-22 13:00:00 18.5 12 Oeste 53 Sudoeste 0 998.6 0.3 67
2019-04-22 12:00:00 18.8 21 Oeste 44 Oeste 0 998.7 1.2 69
2019-04-22 11:00:00 18.4 21 Oeste 39 Oeste 0 998.2 1.2 70
2019-04-22 10:00:00 17.1 12 Oeste 42 Sudoeste 0 998.3 1.3 76
2019-04-22 09:00:00 16.3 19 Oeste 45 Oeste 0 997.5 0 76
2019-04-22 08:00:00 15.3 19 Oeste 36 Oeste 0 997 -0.9 75
2019-04-22 07:00:00 15 19 Oeste 32 Oeste 0 997 -1.2 74
2019-04-22 06:00:00 15.3 13 Oeste 24 Oeste 0 997.5 -1 74
2019-04-22 05:00:00 15 13 Oeste 23 Oeste 0 997.9 -1.5 75
2019-04-22 04:00:00 14.8 9 Oeste 17 Oeste 0 998.2 -1.8 72
2019-04-22 03:00:00 14.4 9 Sudoeste 15 Oeste 0 998.5 -2 73
2019-04-22 02:00:00 14.4 4 Sudoeste 13 Sudoeste 0 999.4 -1.3 74
2019-04-22 01:00:00 13.9 6 Oeste 11 Oeste 0 1000 -0.5 77
2019-04-22 00:00:00 13.8 4 Noroeste 6 Noroeste 0 1000.5 0.5 85
2019-04-21 23:00:00 13.9 3 Oeste 6 Sudoeste 0 1000.7 0.6 83
2019-04-21 22:00:00 14.2 4 Sudoeste 5 Sudoeste 0 1000.5 0.1 83
2019-04-21 21:00:00 14.5 6 Oeste 15 Oeste 0 1000 -0.6 78
2019-04-21 20:00:00 14.3 10 Oeste 17 Sudoeste 0 1000.1 -0.5 81
2019-04-21 19:00:00 14.4 6 Oeste 18 Noroeste 0.2 1000.4 -0.5 83
2019-04-21 18:00:00 14.2 6 Oeste 23 Oeste 0 1000.6 -0.3 84
2019-04-21 17:00:00 13.8 9 Oeste 25 Oeste 0 1000.6 -0.3 89
2019-04-21 16:00:00 13.7 8 Oeste 29 Oeste 0.4 1000.9 -0.3 89
2019-04-21 15:00:00 13.5 7 Oeste 31 Norte 0.6 1000.9 -0.5 92
2019-04-21 14:00:00 13.9 11 Noroeste 27 Norte 2.2 1000.9 -0.2 90
2019-04-21 13:00:00 13.9 17 Norte 40 Norte 0.4 1001.2 0.6 94
2019-04-21 12:00:00 14.4 27 Norte 39 Nordeste 0 1001.4 0.7 86
2019-04-21 11:00:00 15.2 16 Norte 34 Norte 0 1001.1 0.2 76
2019-04-21 10:00:00 15.6 9 Norte 31 Sudoeste 0 1000.6 -0.6 71
2019-04-21 09:00:00 13.8 14 Sudoeste 28 Sudoeste 0 1000.7 -1 78
2019-04-21 08:00:00 14.1 10 Sudoeste 23 Sudoeste 0 1000.9 -1.2 76
2019-04-21 07:00:00 13.8 7 Sudoeste 11 Sudoeste 0 1001.2 -1.4 72
2019-04-21 06:00:00 13.8 6 Sudoeste 8 Oeste 0 1001.7 -1.7 77
2019-04-21 05:00:00 14.1 5 Noroeste 12 Noroeste 0 1002.1 -2.3 81
2019-04-21 04:00:00 14.3 3 Oeste 8 Oeste 0 1002.6 -2.2 78
2019-04-21 03:00:00 14.6 6 Oeste 10 Oeste 0 1003.4 -1.7 76
2019-04-21 02:00:00 15.1 5 Noroeste 12 Noroeste 0 1004.4 -0.9 73
2019-04-21 01:00:00 14.5 8 Noroeste 10 Noroeste 0 1004.8 -0.6 75
2019-04-21 00:00:00 14.7 6 Sudoeste 10 Sudoeste 0 1005.1 -0.4 77
2019-04-20 23:00:00 15.6 6 Norte 8 Norte 0 1005.3 -0.2 73
2019-04-20 22:00:00 15.5 5 Sudeste 17 Sudeste 0 1005.4 0.1 72
2019-04-20 21:00:00 15.8 12 Sudeste 23 Este 0 1005.5 0.5 73
2019-04-20 20:00:00 16.3 15 Este 23 Este 0 1005.5 0.8 73
2019-04-20 19:00:00 16.4 13 Este 21 Este 0 1005.3 0.4 72
2019-04-20 18:00:00 16.6 13 Este 20 Este 0 1005 0.1 73
2019-04-20 17:00:00 16.7 12 Este 22 Nordeste 0 1004.7 -0.1 70
2019-04-20 16:00:00 17.1 14 Nordeste 26 Norte 0 1004.9 0.5 66
2019-04-20 15:00:00 18 18 Norte -- -- -- 1004.9 0.2 59
2019-04-20 14:00:00 18.6 17 Nordeste 24 Nordeste 0 1004.8 -0.3 54
2019-04-20 13:00:00 19 13 Nordeste 22 Norte 0 1004.4 -1.2 51
2019-04-20 12:00:00 18.9 10 Este 21 Este 0 1004.7 -0.6 56
2019-04-20 11:00:00 18.4 9 Sudeste 18 Sudeste 0 1005.1 0 57
2019-04-20 10:00:00 17.2 6 Sudeste 11 Sudeste 0 1005.6 0.6 63
2019-04-20 09:00:00 14.3 4 Noroeste 17 Norte 0 1005.3 0.4 76
2019-04-20 08:00:00 12.7 8 Sudoeste 14 Oeste 0 1005.1 -0.4 78
2019-04-20 07:00:00 11.3 8 Sudoeste 11 Sudoeste 0 1005 -0.9 77
2019-04-20 06:00:00 11.1 5 Sudoeste 11 Noroeste 0 1004.9 -1.9 77
2019-04-20 05:00:00 11.4 7 Noroeste 12 Norte 0 1005.5 -2.5 80
2019-04-20 04:00:00 12 9 Sudoeste 12 Sudoeste 0 1005.9 -2.8 88
2019-04-20 03:00:00 12.4 9 Sudoeste 12 Sudoeste 0 1006.8 -2.4 82
2019-04-20 02:00:00 12.6 3 Noroeste 11 Oeste 0 1008 -1.2 85
2019-04-20 01:00:00 13.4 8 Sudoeste 10 Sudoeste 0 1008.7 0 81
2019-04-20 00:00:00 13.8 8 Sudoeste 11 Sudoeste 0 1009.2 1.1 80
2019-04-19 23:00:00 14.6 6 Sudoeste 9 Sudoeste 0 1009.2 1 77
2019-04-19 22:00:00 15.4 6 Noroeste 8 Noroeste 0 1008.7 0.8 72
2019-04-19 21:00:00 16.2 3 Sudoeste 13 Sudeste 0 1008.1 0.3 71
2019-04-19 20:00:00 17 4 Noroeste 17 Oeste 0 1008.2 0.3 63
2019-04-19 19:00:00 17.6 8 Oeste 15 Oeste 0 1007.9 0.1 57
2019-04-19 18:00:00 18 7 Noroeste 17 Nordeste 0 1007.8 0 51
2019-04-19 17:00:00 17.2 13 Norte 30 Este 0 1007.9 -0.4 68
2019-04-19 16:00:00 17.4 20 Nordeste 30 Nordeste 0 1007.8 -1 67
2019-04-19 15:00:00 18.3 20 Nordeste 29 Nordeste 0 1007.8 -1 60
2019-04-19 14:00:00 18.7 14 Norte 21 Nordeste 0 1008.3 -0.2 52
2019-04-19 13:00:00 18.9 12 Noroeste 21 Norte 0 1008.8 0.3 46
2019-04-19 12:00:00 18.9 10 Oeste 19 Oeste 0 1008.8 0.4 51
2019-04-19 11:00:00 18.1 6 Oeste 18 Oeste 0 1008.5 0.4 58
2019-04-19 10:00:00 16.5 5 Oeste 20 Sudoeste 0 1008.5 0.8 65
2019-04-19 09:00:00 14.3 5 Noroeste 8 Noroeste 0 1008.4 0.5 86
2019-04-19 08:00:00 13 5 Oeste 9 Sudoeste 0 1008.1 0 85
2019-04-19 07:00:00 13.4 6 Sudoeste 9 Sudoeste 0 1007.7 -0.9 87
2019-04-19 06:00:00 14 3 Sudoeste 7 Oeste 0 1007.9 -1 83
2019-04-19 05:00:00 14.5 3 Sudeste 14 Oeste 0 1008.1 -0.9 79
2019-04-19 04:00:00 14.7 8 Oeste 14 Sudoeste 0 1008.6 -0.7 75
2019-04-19 03:00:00 14.5 8 Oeste 14 Sudoeste 0 1008.9 -0.1 74
2019-04-19 02:00:00 14.7 3 Noroeste 11 Oeste 0 1009 0.3 77
2019-04-19 01:00:00 14.9 3 Oeste 12 Oeste 0 1009.3 1.3 74
2019-04-19 00:00:00 15.3 6 Oeste 16 Oeste 0 1009 1.9 68
2019-04-18 23:00:00 15.5 11 Oeste 23 Oeste 0 1008.7 1.4 67
2019-04-18 22:00:00 15.5 12 Oeste 20 Sudoeste 0 1008 0.7 68
2019-04-18 21:00:00 15.7 5 Noroeste 16 Oeste 0 1007.1 0 70
2019-04-18 20:00:00 16.4 10 Sudoeste 19 Oeste 0.2 1007.3 -0.2 68
2019-04-18 19:00:00 17 5 Oeste 17 Oeste 0 1007.3 -0.4 70
2019-04-18 18:00:00 16.4 6 Oeste 17 Oeste 0 1007.1 -0.7 75
2019-04-18 17:00:00 15.8 4 Oeste 15 Oeste 0.2 1007.5 -0.4 80
2019-04-18 16:00:00 15.4 8 Oeste 15 Sudoeste 0 1007.7 -0.6 81
2019-04-18 15:00:00 15 5 Sudeste 9 Noroeste 0.2 1007.8 -0.4 91
2019-04-18 14:00:00 14.5 4 Noroeste 13 Oeste 2 1007.9 -0.2 91
2019-04-18 13:00:00 14.1 8 Oeste 15 Oeste 1.8 1008.3 0.3 92
2019-04-18 12:00:00 13.7 6 Oeste 19 Oeste 0.4 1008.2 0.9 93
2019-04-18 11:00:00 13.3 7 Oeste 23 Noroeste 0.8 1008.1 1.4 93
2019-04-18 10:00:00 13.2 13 Noroeste 31 Noroeste 1 1008 1.9 90
2019-04-18 09:00:00 15.2 3 Noroeste 8 Noroeste 1 1007.3 1.5 92
2019-04-18 08:00:00 15.7 4 Noroeste 9 Noroeste 1 1006.7 0.6 92
2019-04-18 07:00:00 16 3 Sur 9 Nordeste 0.4 1006.1 -0.4 91
2019-04-18 06:00:00 16.2 3 Nordeste 8 Noroeste 0 1005.8 -1.4 89
2019-04-18 05:00:00 16.2 5 Noroeste 8 Noroeste 0 1006.1 -1.9 86
2019-04-18 04:00:00 16.2 4 Noroeste 8 Norte 0 1006.5 -1.5 88
2019-04-18 03:00:00 16.3 3 Noroeste 16 Oeste 0 1007.2 -0.9 88
2019-04-18 02:00:00 16.4 6 Oeste 15 Norte 0 1008 0.1 87
2019-04-18 01:00:00 16.3 8 Noroeste 18 Noroeste 0 1008 0.7 88
2019-04-18 00:00:00 16.2 6 Noroeste 23 Noroeste 0 1008.1 2.5 88
2019-04-17 23:00:00 16.3 14 Noroeste 23 Noroeste 0 1007.9 2.9 88
2019-04-17 22:00:00 16.8 9 Noroeste 21 Noroeste 0 1007.3 3.4 84
2019-04-17 21:00:00 16.8 7 Noroeste 16 Norte 0 1005.6 2.7 85
2019-04-17 20:00:00 16.4 12 Norte 18 Norte 0 1005 1.7 87
2019-04-17 19:00:00 16.7 13 Nordeste 24 Este 0 1003.9 -0.4 86
2019-04-17 18:00:00 16.7 20 Este 32 Este 0 1002.9 -2.4 86
2019-04-17 17:00:00 17 22 Este 33 Sudeste 0 1003.3 -2.9 85
2019-04-17 16:00:00 17.1 24 Este 35 Este 0 1004.3 -2.9 83
2019-04-17 15:00:00 17 22 Este 32 Este 0 1005.3 -2.7 84
2019-04-17 14:00:00 17.2 24 Este 36 Este 0 1006.2 -2 84
2019-04-17 13:00:00 18.1 24 Este 33 Este 0 1007.2 -1.2 80
2019-04-17 12:00:00 17.6 21 Este 31 Este 0 1008 -0.5 82
2019-04-17 11:00:00 17.1 20 Este 31 Este 0 1008.2 -0.2 81
2019-04-17 10:00:00 16.7 21 Este 31 Este 0 1008.4 0.4 79
2019-04-17 09:00:00 16.5 22 Este 31 Este 0 1008.5 0.2 81
2019-04-17 08:00:00 16.4 20 Este 29 Este 0 1008.4 0.1 84
2019-04-17 07:00:00 16.4 20 Este 25 Este 0 1008 -0.4 88
2019-04-17 06:00:00 16.5 17 Este 23 Este 0 1008.3 -0.6 85
2019-04-17 05:00:00 16.4 16 Este 22 Este 0 1008.3 -1.3 85
2019-04-17 04:00:00 16.4 15 Este 21 Este 0 1008.4 -1.5 86
2019-04-17 03:00:00 16.3 10 Este 17 Sudeste 0 1008.9 -1.2 89
2019-04-17 02:00:00 16.2 9 Este 13 Sudeste 0 1009.6 -0.3 89
2019-04-17 01:00:00 16.2 6 Este 12 Este 0 1009.9 0.6 88
2019-04-17 00:00:00 16.8 9 Nordeste 11 Nordeste 0 1010.1 1.2 85
2019-04-16 23:00:00 16.9 8 Este 16 Sudeste 0 1009.9 1.1 80
2019-04-16 22:00:00 17.2 9 Este 15 Sudeste 0 1009.3 0.6 78
2019-04-16 21:00:00 17.8 9 Este 15 Este 0 1008.9 0 71
2019-04-16 20:00:00 18.9 11 Este 18 Este 0 1008.8 -0.4 66
2019-04-16 19:00:00 19.6 10 Sudeste 18 Este 0 1008.7 -1.1 61
2019-04-16 18:00:00 20.6 13 Este 19 Este 0 1008.9 -1.8 55
2019-04-16 17:00:00 19.5 12 Este 20 Este 0 1009.2 -2.1 65
2019-04-16 16:00:00 19.7 13 Este 23 Este 0 1009.8 -1.9 65
2019-04-16 15:00:00 19.5 16 Nordeste 26 Nordeste 0 1010.7 -1.4 58
2019-04-16 14:00:00 20 18 Este 26 Nordeste 0 1011.3 -0.9 64
2019-04-16 13:00:00 21.4 15 Este 24 Este 0 1011.7 -0.5 61
2019-04-16 12:00:00 21.3 12 Este 21 Este 0 1012.1 0.1 53
2019-04-16 11:00:00 21 9 Sudeste 16 Sudeste 0 1012.2 0.5 55
2019-04-16 10:00:00 19.5 8 Oeste 23 Oeste 0 1012.2 0.7 55
2019-04-16 09:00:00 18.1 12 Oeste 25 Sudoeste 0 1012 0.6 65
2019-04-16 08:00:00 16.7 15 Oeste 25 Oeste 0 1011.7 0 71
2019-04-16 07:00:00 16.7 15 Oeste 30 Oeste 0 1011.5 0.2 72
2019-04-16 06:00:00 17 17 Oeste 33 Oeste 0 1011.4 -0.2 70
2019-04-16 05:00:00 17.3 18 Oeste 28 Oeste 0 1011.7 -0.5 67
2019-04-16 04:00:00 17.8 18 Oeste 32 Oeste 0 1011.3 -0.6 62
2019-04-16 03:00:00 18 21 Oeste 39 Oeste 0 1011.6 -0.2 64
2019-04-16 02:00:00 18.1 24 Oeste 43 Oeste 0 1012.2 1.3 64
2019-04-16 01:00:00 18.4 28 Oeste 47 Sudoeste 0 1011.9 1.3 60
2019-04-16 00:00:00 19 28 Oeste 54 Oeste 0 1011.8 1.7 53
2019-04-15 23:00:00 19.3 28 Oeste 41 Oeste 0 1010.9 1.9 55
2019-04-15 22:00:00 19.7 26 Oeste 44 Oeste 0 1010.6 2.7 55
2019-04-15 21:00:00 20.2 25 Oeste 40 Oeste 0 1010.1 2.8 52
2019-04-15 20:00:00 20.1 24 Oeste 42 Oeste 0 1009 2.4 49
2019-04-15 19:00:00 24.2 13 Oeste 29 Oeste 0 1007.9 1.6 41
2019-04-15 18:00:00 23.6 11 Oeste 44 Oeste 0 1007.3 0.8 45
2019-04-15 17:00:00 22.5 17 Oeste 48 Oeste 0 1006.6 0.2 51
2019-04-15 16:00:00 23.9 13 Oeste 46 Oeste 0 1006.3 -0.5 47
2019-04-15 15:00:00 25.7 10 Oeste 35 Sudoeste 0 1006.5 -0.5 43
2019-04-15 14:00:00 27.9 10 Noroeste 23 Noroeste 0 1006.4 -0.5 26
2019-04-15 13:00:00 25.6 8 Noroeste 17 Norte 0 1006.8 -0.2 28
2019-04-15 12:00:00 23.4 4 Nordeste 10 Este 0 1007 -0.1 52
2019-04-15 11:00:00 21.9 6 Este 9 Este 0 1006.9 -0.1 56
2019-04-15 10:00:00 18.6 4 Norte 6 Norte 0 1007 -0.1 64
2019-04-15 09:00:00 16.7 3 Noroeste 6 Oeste 0 1007.1 0 72
2019-04-15 08:00:00 15.1 4 Oeste 6 Noroeste 0 1007 -0.3 67
2019-04-15 07:00:00 15.4 3 Noroeste 9 Noroeste 0 1007.1 -0.3 46
2019-04-15 06:00:00 16.4 5 Oeste 8 Noroeste 0 1007.1 -1.3 41
2019-04-15 05:00:00 15.7 3 Noroeste 6 Oeste 0 1007.3 -1.9 45
2019-04-15 04:00:00 15.9 2 Noroeste 10 Oeste 0 1007.4 -2.3 45
2019-04-15 03:00:00 16.1 4 Sudoeste 8 Sudoeste 0 1008.4 -1.6 40
2019-04-15 02:00:00 16.2 6 Oeste 8 Sudoeste 0 1009.2 -0.8 50
2019-04-15 01:00:00 16.3 5 Sudoeste 6 Oeste 0 1009.7 -0.1 56
2019-04-15 00:00:00 16.9 2 Noroeste 6 Noroeste 0 1010 0.3 59
2019-04-14 23:00:00 17.6 4 Noroeste 6 Este 0 1010 0.5 57
2019-04-14 22:00:00 17.9 5 Sudeste 9 Sudeste 0 1009.8 0.4 61
2019-04-14 21:00:00 18.2 5 Este 10 Este 0 1009.7 0.2 57
2019-04-14 20:00:00 19.6 7 Este 15 Este 0 1009.5 -0.5 46
2019-04-14 19:00:00 21.2 8 Este 14 Este 0 1009.4 -1.1 34
2019-04-14 18:00:00 21.9 9 Nordeste 15 Este 0 1009.5 -1.5 33
2019-04-14 17:00:00 21.3 13 Nordeste 19 Nordeste 0 1010 -1.2 35
2019-04-14 16:00:00 22.1 11 Nordeste 22 Nordeste 0 1010.5 -1.3 36
2019-04-14 15:00:00 22.4 13 Nordeste 20 Nordeste 0 1011 -1.3 36
2019-04-14 14:00:00 23.8 12 Nordeste 20 Nordeste 0 1011.2 -1.5 26
2019-04-14 13:00:00 22.9 11 Nordeste 17 Este 0 1011.8 -0.6 28
2019-04-14 12:00:00 22.5 8 Nordeste 12 Este 0 1012.3 -0.2 28
2019-04-14 11:00:00 21.3 4 Este 10 Este 0 1012.7 0.6 38
2019-04-14 10:00:00 19.5 7 Este 10 Este 0 1012.4 0.5 41
2019-04-14 09:00:00 16.1 2 Noroeste 7 Norte 0 1012.5 0.6 52
2019-04-14 08:00:00 14.2 4 Oeste 10 Sudoeste 0 1012.1 0.1 49
2019-04-14 07:00:00 13.4 5 Noroeste 11 Oeste 0 1011.9 -0.6 50
2019-04-14 06:00:00 15.1 4 Oeste 11 Sudoeste 0 1011.9 -1 43
2019-04-14 05:00:00 15.7 8 Sudoeste 13 Sudoeste 0 1012 -1.4 42
2019-04-14 04:00:00 14.6 3 Sudoeste 7 Sudoeste 0 1012.5 -1.5 44
2019-04-14 03:00:00 14.4 4 Noroeste 8 Noroeste 0 1012.9 -1.1 47
2019-04-14 02:00:00 15 4 Noroeste 8 Oeste 0 1013.4 -0.5 45
2019-04-14 01:00:00 15.2 3 Oeste 9 Norte 0 1014 0.8 44
2019-04-14 00:00:00 15.2 8 Noroeste 11 Noroeste 0 1014 1.7 47
2019-04-13 23:00:00 16.8 5 Noroeste 10 Noroeste 0 1013.9 1.8 43
2019-04-13 22:00:00 18.6 4 Norte 12 Oeste 0 1013.2 1.3 39
2019-04-13 21:00:00 20.1 8 Oeste 14 Oeste 0 1012.3 0.6 31
2019-04-13 20:00:00 21.1 6 Noroeste 18 Noroeste 0 1012.1 0.1 28
2019-04-13 19:00:00 22 10 Noroeste 21 Norte 0 1011.9 -0.4 27
2019-04-13 18:00:00 22.4 15 Noroeste 22 Noroeste 0 1011.7 -1.1 26
2019-04-13 17:00:00 22.9 9 Noroeste 27 Sudoeste 0 1012 -1.2 33
2019-04-13 16:00:00 22.8 12 Noroeste 26 Noroeste 0 1012.3 -1.4 32
2019-04-13 15:00:00 23.5 8 Noroeste 23 Oeste 0 1012.8 -0.9 30
2019-04-13 14:00:00 23.1 9 Oeste 25 Noroeste 0 1013.2 -0.2 31
2019-04-13 13:00:00 22.7 10 Oeste 26 Noroeste 0 1013.7 0.7 31
2019-04-13 12:00:00 21.7 9 Noroeste 22 Noroeste 0 1013.7 0.8 32
2019-04-13 11:00:00 21.2 9 Oeste 26 Oeste 0 1013.4 1.3 34
2019-04-13 10:00:00 19.8 13 Oeste 23 Oeste 0 1013 1.3 36
2019-04-13 09:00:00 18.1 14 Oeste 23 Sudoeste 0 1012.9 1.6 39
2019-04-13 08:00:00 16.8 13 Oeste 19 Oeste 0 1012.1 0.8 41
2019-04-13 07:00:00 13.7 6 Sudoeste 12 Oeste 0 1011.7 0 51
2019-04-13 06:00:00 14.4 4 Sudeste 18 Sudoeste 0 1011.3 -1 51
2019-04-13 05:00:00 16.6 12 Oeste 20 Oeste 0 1011.3 -1.5 40
2019-04-13 04:00:00 12 2 Sudoeste 8 Noroeste 0 1011.7 -0.8 58
2019-04-13 03:00:00 13.4 4 Noroeste 8 Oeste 0 1012.3 0.1 52
2019-04-13 02:00:00 13.8 2 Noroeste 5 Oeste 0 1012.8 1 51
2019-04-13 01:00:00 13.8 4 Oeste 10 Norte 0 1012.5 1.3 55
2019-04-13 00:00:00 14.4 7 Nordeste 10 Norte 0 1012.2 1.9 54
2019-04-12 23:00:00 16.4 9 Oeste 15 Oeste 0 1011.8 1.8 42
2019-04-12 22:00:00 16.3 7 Noroeste 11 Noroeste 0 1011.2 1.2 53
2019-04-12 21:00:00 17.5 5 Noroeste 17 Oeste 0 1010.3 0.1 48
2019-04-12 20:00:00 18.6 10 Noroeste 22 Noroeste 0 1010 -0.2 42
2019-04-12 19:00:00 19.6 8 Oeste 28 Noroeste 0 1010 -0.6 44
2019-04-12 18:00:00 20.1 9 Oeste 29 Oeste 0 1010.2 -0.9 43
2019-04-12 17:00:00 20.6 10 Oeste 32 Oeste 0 1010.2 -1.3 46
2019-04-12 16:00:00 21.4 16 Oeste 35 Oeste 0 1010.6 -1 46
2019-04-12 15:00:00 21.3 10 Oeste 30 Noroeste 0 1011.1 -0.7 42
2019-04-12 14:00:00 20.7 11 Noroeste 29 Oeste 0 1011.5 -0.1 40
2019-04-12 13:00:00 20.9 11 Oeste 26 Oeste 0 1011.6 0.5 39
2019-04-12 12:00:00 20.4 9 Oeste 30 Oeste 0 1011.8 0.8 40
2019-04-12 11:00:00 19.7 15 Oeste 32 Oeste 0 1011.6 1.1 41
2019-04-12 10:00:00 18.6 11 Oeste 30 Oeste 0 1011.1 0.8 44
2019-04-12 09:00:00 17 15 Oeste 22 Oeste 0 1011 0.9 48
2019-04-12 08:00:00 15.5 13 Oeste 22 Sudoeste 0 1010.5 0.4 51
2019-04-12 07:00:00 15.5 9 Oeste 17 Oeste 0 1010.3 -0.4 51
2019-04-12 06:00:00 15.2 7 Oeste 28 Oeste 0 1010.1 -1.1 54
2019-04-12 05:00:00 15.3 19 Oeste 28 Oeste 0 1010.1 -1.4 56
2019-04-12 04:00:00 15.5 18 Oeste 28 Oeste 0 1010.7 -0.7 58
2019-04-12 03:00:00 15.6 13 Oeste 22 Oeste 0 1011.2 -0.3 55
2019-04-12 02:00:00 16.1 13 Oeste 30 Oeste 0 1011.5 0 55
2019-04-12 01:00:00 16.2 17 Oeste 27 Oeste 0 1011.4 0.3 57
2019-04-12 00:00:00 16.2 14 Oeste 26 Sudoeste 0 1011.5 1.3 57
2019-04-11 23:00:00 16.2 14 Oeste 32 Oeste 0 1011.5 1.7 60
2019-04-11 22:00:00 16.4 18 Oeste 32 Sudoeste 0 1011.1 1.4 61
2019-04-11 21:00:00 16.5 20 Oeste 37 Oeste 0 1010.2 0.1 64
2019-04-11 20:00:00 17.6 17 Oeste 37 Oeste 0 1009.8 -0.4 60
2019-04-11 19:00:00 18.5 9 Oeste 32 Sudoeste 0 1009.7 -1 53
2019-04-11 18:00:00 19.2 10 Oeste 40 Oeste 0 1010.1 -1.1 49
2019-04-11 17:00:00 19.1 15 Noroeste 37 Noroeste 0 1010.2 -1.3 47
2019-04-11 16:00:00 20.5 11 Oeste 31 Noroeste 0 1010.7 -1 43
2019-04-11 15:00:00 19.8 13 Noroeste 32 Noroeste 0 1011.2 -0.6 44
2019-04-11 14:00:00 19.3 11 Noroeste 34 Oeste 0 1011.5 -0.1 54
2019-04-11 13:00:00 19 12 Oeste 38 Oeste 0 1011.7 0.4 58
2019-04-11 12:00:00 18.4 13 Oeste 35 Oeste 0 1011.8 0.7 58
2019-04-11 11:00:00 18.2 20 Oeste 39 Oeste 0 1011.6 0.7 57
2019-04-11 10:00:00 17.2 16 Oeste 37 Oeste 0 1011.3 0.8 66
2019-04-11 09:00:00 16 21 Oeste 37 Oeste 0 1011.1 0.5 72
2019-04-11 08:00:00 14.9 15 Oeste 31 Oeste 0 1010.9 0.2 72
2019-04-11 07:00:00 15.2 18 Oeste 35 Oeste 0 1010.5 -0.2 71
2019-04-11 06:00:00 15.4 15 Oeste 32 Oeste 0 1010.6 -0.5 66
2019-04-11 05:00:00 15.4 15 Oeste 30 Oeste 0 1010.7 -0.7 68
2019-04-11 04:00:00 15.2 15 Oeste 32 Sudoeste 0 1010.7 -0.8 68
2019-04-11 03:00:00 15.2 15 Oeste 31 Oeste 0 1011.1 -0.3 60
2019-04-11 02:00:00 15.2 16 Oeste 34 Oeste 0 1011.4 0 61
2019-04-11 01:00:00 15.4 21 Oeste 43 Oeste 0 1011.5 1.1 64
2019-04-11 00:00:00 15.5 19 Oeste 37 Oeste 0 1011.4 1.9 65
2019-04-10 23:00:00 15.6 18 Oeste 44 Oeste 0 1011.4 2.4 64
2019-04-10 22:00:00 15.6 19 Oeste 44 Oeste 0 1010.4 1.8 64
2019-04-10 21:00:00 15.7 21 Oeste 41 Oeste 0 1009.5 1.1 64
2019-04-10 20:00:00 16.4 19 Oeste 45 Oeste 0 1009 0.1 60
2019-04-10 19:00:00 17.1 17 Oeste 46 Noroeste 0 1008.6 -0.9 56
2019-04-10 18:00:00 17.4 17 Oeste 56 Oeste 0 1008.4 -1.5 57
2019-04-10 17:00:00 18.3 16 Oeste 45 Oeste 0 1008.9 -1.2 46
2019-04-10 16:00:00 18.1 19 Oeste 49 Oeste 0 1009.5 -1.1 48
2019-04-10 15:00:00 18 18 Oeste 52 Oeste 0 1009.9 -1 52
2019-04-10 14:00:00 18.3 13 Oeste 51 Oeste 0 1010.1 -0.8 51
2019-04-10 13:00:00 18.4 23 Oeste 54 Oeste 0 1010.6 -0.1 44
2019-04-10 12:00:00 18.1 21 Oeste 50 Oeste 0 1010.9 0.4 45
2019-04-10 11:00:00 17.6 14 Oeste 42 Oeste 0 1010.9 0.5 53
2019-04-10 10:00:00 16.4 21 Oeste 38 Oeste 0 1010.7 0.4 60
2019-04-10 09:00:00 15 18 Sudoeste 32 Sudoeste 0 1010.5 0.3 65
2019-04-10 08:00:00 14 14 Sudoeste 33 Oeste 0 1010.4 -0.1 69
2019-04-10 07:00:00 14 13 Oeste 28 Oeste 0 1010.3 -0.4 70
2019-04-10 06:00:00 14 13 Oeste 32 Oeste 0 1010.2 -0.9 67
2019-04-10 05:00:00 14.1 13 Oeste 31 Oeste 0 1010.5 -1.1 68
2019-04-10 04:00:00 14.4 17 Oeste 31 Oeste 0 1010.7 -1 72
2019-04-10 03:00:00 14.7 12 Oeste 32 Oeste 0 1011.1 -0.6 71
2019-04-10 02:00:00 15.2 19 Oeste 43 Oeste 0 1011.6 0.1 68
2019-04-10 01:00:00 15.5 15 Oeste 35 Oeste 0 1011.7 0.6 67
2019-04-10 00:00:00 15.5 20 Sudoeste 35 Oeste 0 1011.7 0.9 67
2019-04-09 23:00:00 15.7 20 Oeste 42 Oeste 0 1011.5 1.1 69
2019-04-09 22:00:00 16.1 16 Oeste 36 Oeste 0 1011.1 0.5 65
2019-04-09 21:00:00 16.1 14 Oeste 34 Oeste 0 1010.8 0.1 63
2019-04-09 20:00:00 16.7 17 Oeste 35 Oeste 0 1010.4 -0.5 65
2019-04-09 19:00:00 17.6 13 Oeste 35 Oeste 0 1010.6 -1 60
2019-04-09 18:00:00 18.4 12 Oeste 35 Oeste 0 1010.7 -1.6 57
2019-04-09 17:00:00 19.2 14 Oeste 33 Oeste 0 1010.9 -1.5 48
2019-04-09 16:00:00 18.3 14 Oeste 31 Oeste 0 1011.6 -1 54
2019-04-09 15:00:00 18.8 13 Oeste 32 Oeste 0 1012.3 -0.6 53
2019-04-09 14:00:00 18.4 20 Oeste 39 Oeste 0 1012.4 -0.4 56
2019-04-09 13:00:00 18.3 15 Oeste 39 Oeste 0 1012.6 -0.1 58
2019-04-09 12:00:00 17.6 14 Oeste 39 Oeste 0 1012.9 0.3 62
2019-04-09 11:00:00 17.1 13 Oeste 34 Sudoeste 0 1012.8 0.9 65
2019-04-09 10:00:00 17.1 12 Oeste 33 Sudoeste 0 1012.7 1.4 66
2019-04-09 09:00:00 15.3 18 Sudoeste 28 Oeste 0 1012.6 1.4 71
2019-04-09 08:00:00 14.5 16 Sudoeste 33 Oeste 0 1011.9 0.8 77
2019-04-09 07:00:00 14.9 18 Oeste 35 Sudoeste 0 1011.3 0.4 75
2019-04-09 06:00:00 14.8 13 Oeste 31 Sudoeste 0 1011.2 0 76
2019-04-09 05:00:00 15.1 12 Oeste 31 Oeste 0 1011.1 -0.3 78
2019-04-09 04:00:00 15.4 19 Oeste 37 Oeste 0 1010.9 -0.9 80
2019-04-09 03:00:00 15.4 18 Oeste 31 Oeste 0 1011.2 -0.1 77
2019-04-09 02:00:00 15.8 15 Oeste 37 Oeste 0 1011.4 0.2 78
2019-04-09 01:00:00 16.3 13 Oeste 28 Oeste 0 1011.8 0.9 76
2019-04-09 00:00:00 16.6 17 Oeste 32 Oeste 0 1011.3 1.2 73
2019-04-08 23:00:00 16.6 18 Oeste 30 Sudoeste 0 1011.2 1.3 73
2019-04-08 22:00:00 16.7 16 Oeste 36 Oeste 0 1010.9 1 73
2019-04-08 21:00:00 17 18 Oeste 32 Oeste 0 1010.1 0.2 71
2019-04-08 20:00:00 18 13 Oeste 36 Sudoeste 0 1009.9 -0.2 67
2019-04-08 19:00:00 19.4 12 Oeste 30 Noroeste 0 1009.9 -0.5 60
2019-04-08 18:00:00 20.7 11 Oeste 29 Noroeste 0 1009.9 -0.9 50
2019-04-08 17:00:00 20.7 9 Noroeste 27 Oeste 0 1010.1 -0.9 49
2019-04-08 16:00:00 21.2 15 Noroeste 26 Noroeste 0 1010.4 -1.2 46
2019-04-08 15:00:00 22.1 9 Oeste 24 Noroeste 0 1010.8 -1.3 43
2019-04-08 14:00:00 21.1 13 Noroeste 24 Noroeste 0 1011 -0.7 48
2019-04-08 13:00:00 20.3 8 Noroeste 17 Noroeste 0 1011.6 0 53
2019-04-08 12:00:00 19.7 10 Norte 19 Norte 0 1012.1 0.5 56
2019-04-08 11:00:00 19.3 5 Noroeste 10 Norte 0 1011.7 0.3 58
2019-04-08 10:00:00 17.6 6 Sudeste 12 Sudoeste 0 1011.6 0.5 65
2019-04-08 09:00:00 15.4 5 Sudoeste 10 Oeste 0 1011.6 0.4 76
2019-04-08 08:00:00 13 3 Sudoeste 10 Sudoeste 0 1011.4 0 81
2019-04-08 07:00:00 14 8 Sudoeste 12 Sudoeste 0 1011.1 -0.5 78
2019-04-08 06:00:00 12.9 6 Sudoeste 12 Sudoeste 0 1011.2 -0.7 82
2019-04-08 05:00:00 13.8 9 Sudoeste 12 Sudoeste 0 1011.4 -1 76
2019-04-08 04:00:00 13.4 3 Noroeste 8 Oeste 0 1011.6 -0.9 79
2019-04-08 03:00:00 14.5 7 Sudoeste 10 Sudoeste 0 1011.9 -0.6 74
2019-04-08 02:00:00 13.6 5 Noroeste 8 Oeste 0 1012.4 -0.1 78
2019-04-08 01:00:00 14.2 7 Sudoeste 10 Sudoeste 0 1012.5 0.3 74
2019-04-08 00:00:00 15.1 2 Norte 9 Sudoeste 0 1012.5 1.1 72
2019-04-07 23:00:00 15.8 7 Sudoeste 15 Sudoeste 0 1012.5 1.3 69
2019-04-07 22:00:00 15.9 9 Sudoeste 22 Oeste 0 1012.2 1.1 70
2019-04-07 21:00:00 16.2 12 Oeste 23 Oeste 0 1011.4 0.7 70
2019-04-07 20:00:00 16.7 5 Oeste 20 Oeste 0 1011.2 0.5 70
2019-04-07 19:00:00 17.5 10 Oeste 23 Oeste 0 1011.1 0.6 67
2019-04-07 18:00:00 17.7 8 Oeste 28 Sudoeste 0 1010.7 -0.1 63
2019-04-07 17:00:00 19.1 13 Oeste 34 Oeste 0 1010.7 -0.1 56
2019-04-07 16:00:00 19.3 14 Oeste 31 Oeste 0 1010.5 0 51
2019-04-07 15:00:00 18.3 14 Noroeste 30 Oeste 0 1010.8 0.7 57
2019-04-07 14:00:00 17.3 10 Noroeste 32 Oeste 0 1010.8 1.1 61
2019-04-07 13:00:00 18.3 13 Oeste 28 Oeste 0 1010.5 1.1 51
2019-04-07 12:00:00 17.2 13 Oeste 30 Oeste 0 1010.1 1.4 57
2019-04-07 11:00:00 15 9 Oeste 21 Sudoeste 0.8 1009.7 1.5 72
2019-04-07 10:00:00 14.3 13 Sudoeste 24 Sudoeste 0 1009.4 1.4 69
2019-04-07 09:00:00 14 11 Sudoeste 23 Sudoeste 0 1008.7 1.5 69
2019-04-07 08:00:00 13.7 13 Sudoeste 23 Oeste 0 1008.2 0.9 68
2019-04-07 07:00:00 13.7 8 Oeste 17 Sudoeste 0 1008 0.6 63
2019-04-07 06:00:00 13.9 10 Sudoeste 19 Oeste 0 1007.2 -0.4 64
2019-04-07 05:00:00 14.3 11 Oeste 31 Oeste 0 1007.3 -0.5 68
2019-04-07 04:00:00 14.4 13 Oeste 31 Oeste 0 1007.4 -0.4 65
2019-04-07 03:00:00 14.5 9 Oeste 35 Oeste 0 1007.6 0 65
2019-04-07 02:00:00 14.6 12 Oeste 41 Oeste 0 1007.8 0.2 67
2019-04-07 01:00:00 14.7 14 Oeste 40 Oeste 0 1007.8 1 68
2019-04-07 00:00:00 14.4 11 Oeste 33 Noroeste 0 1007.6 1.6 68
2019-04-06 23:00:00 14.5 12 Oeste 24 Oeste 0 1007.6 2.2 73
2019-04-06 22:00:00 14.8 7 Oeste 24 Noroeste 0 1006.8 2 67
2019-04-06 21:00:00 14.8 10 Oeste 24 Oeste 0 1006 1.3 68
2019-04-06 20:00:00 15 7 Oeste 29 Oeste 0 1005.4 1 71
2019-04-06 19:00:00 15.5 9 Oeste 24 Oeste 0 1004.8 0.1 60
2019-04-06 18:00:00 16.2 10 Oeste 29 Noroeste 0 1004.7 -0.1 55
2019-04-06 17:00:00 17.8 13 Oeste 31 Oeste 0 1004.4 -0.8 49
2019-04-06 16:00:00 18 12 Oeste 32 Oeste 0 1004.7 -1 46
2019-04-06 15:00:00 17.9 12 Oeste 26 Noroeste 0 1004.8 -0.9 44
2019-04-06 14:00:00 17.4 8 Noroeste 27 Oeste 0 1005.2 -0.2 45
2019-04-06 13:00:00 17.2 8 Oeste 30 Oeste 0 1005.7 0.7 46
2019-04-06 12:00:00 16.6 15 Oeste 35 Sudoeste 0 1005.7 0.8 44
2019-04-06 11:00:00 15 18 Oeste 31 Sudoeste 0.2 1005.4 1.4 53
2019-04-06 10:00:00 12.9 13 Sudoeste 25 Oeste 0.6 1005 1.2 63
2019-04-06 09:00:00 11.8 12 Oeste 24 Sudoeste 3.4 1004.9 1.7 71
2019-04-06 08:00:00 11.2 10 Sudoeste 29 Oeste 0 1004 1.5 78
2019-04-06 07:00:00 11.5 17 Oeste 30 Oeste 0.2 1003.8 1.1 78
2019-04-06 06:00:00 13.1 10 Oeste 38 Oeste 0 1003.2 0.3 67
2019-04-06 05:00:00 13 17 Oeste 44 Oeste 0.2 1002.5 -1 62
2019-04-06 04:00:00 12.7 17 Oeste 29 Oeste 0 1002.7 -1.2 52
2019-04-06 03:00:00 12.4 17 Oeste 34 Oeste 0 1002.9 -0.5 55
2019-04-06 02:00:00 12.7 17 Sudoeste 28 Sudoeste 0 1003.5 0.3 55
2019-04-06 01:00:00 12.9 13 Sudoeste 26 Sudoeste 0 1003.9 1.5 66
2019-04-06 00:00:00 12.9 17 Sudoeste 31 Sudoeste 0 1003.4 2.4 66
2019-04-05 23:00:00 13.3 15 Sudoeste 32 Oeste 0 1003.2 3 65
2019-04-05 22:00:00 13.1 19 Sudoeste 35 Sudoeste 0.2 1002.4 2.3 67
2019-04-05 21:00:00 12.8 17 Oeste 42 Oeste 0 1001 0.7 72
2019-04-05 20:00:00 12.7 26 Oeste 48 Oeste 0.4 1000.2 0.5 70
2019-04-05 19:00:00 13.2 19 Oeste 44 Oeste 0.6 1000.1 1.1 72
2019-04-05 18:00:00 11.9 17 Oeste 39 Oeste 4.4 1000.3 2 87
2019-04-05 17:00:00 11.6 20 Noroeste 48 Noroeste 2 999.7 1.1 92
2019-04-05 16:00:00 16.1 16 Noroeste 33 Noroeste 0 999 0.3 71
2019-04-05 15:00:00 20.1 13 Noroeste 24 Noroeste 0 998.3 -0.8 39
2019-04-05 14:00:00 20.6 9 Oeste 21 Oeste 0 998.6 -0.8 36
2019-04-05 13:00:00 20.3 10 Oeste 26 Oeste 0 998.7 -0.8 36
2019-04-05 12:00:00 19.4 12 Oeste 29 Sudoeste 0 999.1 -0.9 39
2019-04-05 11:00:00 17.8 13 Sudoeste 28 Sudoeste 0 999.4 -0.8 44
2019-04-05 10:00:00 15.3 4 Nordeste 10 Nordeste 0 999.5 -0.4 57
2019-04-05 09:00:00 12.5 3 Norte 8 Norte 0 1000 0.3 69
2019-04-05 08:00:00 11.6 5 Noroeste 8 Norte 0 1000.2 0.3 73
2019-04-05 07:00:00 12.5 4 Sudoeste 18 Sudoeste 0 999.9 0.1 69
2019-04-05 06:00:00 13.1 9 Sudoeste 24 Oeste 0 999.7 -0.7 66
2019-04-05 05:00:00 13.8 8 Oeste 38 Oeste 0 999.9 -0.5 56
2019-04-05 04:00:00 13.6 14 Oeste 32 Oeste 0 999.8 -0.5 68
2019-04-05 03:00:00 13.7 8 Oeste 26 Oeste 0 1000.4 -0.1 73
2019-04-05 02:00:00 13.7 6 Sudoeste 10 Oeste 0 1000.4 0 87
2019-04-05 01:00:00 13.9 5 Oeste 16 Sudoeste 1 1000.3 0.6 81
2019-04-05 00:00:00 13.7 10 Sudoeste 17 Sudoeste 0.6 1000.5 1.4 85
2019-04-04 23:00:00 14.9 8 Oeste 19 Oeste 0 1000.4 1.4 73
2019-04-04 22:00:00 15.1 8 Noroeste 26 Oeste 0 999.7 0.5 72
2019-04-04 21:00:00 15.3 10 Oeste 23 Oeste 0 999.1 0.1 69
2019-04-04 20:00:00 16 8 Oeste 24 Sudoeste 0 999 0.3 64
2019-04-04 19:00:00 16.5 10 Oeste 27 Oeste 0 999.2 0.4 60
2019-04-04 18:00:00 16.7 10 Oeste 29 Oeste 0 999 -0.3 55
2019-04-04 17:00:00 17.1 15 Noroeste 36 Noroeste 0 998.7 -0.7 50
2019-04-04 16:00:00 18.1 16 Noroeste 36 Noroeste 0 998.8 -0.5 48
2019-04-04 15:00:00 17.8 11 Noroeste 34 Noroeste 0 999.3 -0.1 51
2019-04-04 14:00:00 18.8 15 Noroeste 40 Noroeste 0 999.4 0.3 50
2019-04-04 13:00:00 18.5 14 Oeste 40 Oeste 0 999.3 0.7 52
2019-04-04 12:00:00 18.6 13 Oeste 37 Oeste 0 999.4 1.2 55
2019-04-04 11:00:00 17.9 15 Oeste 36 Oeste 0 999.1 1.7 60
2019-04-04 10:00:00 16.5 19 Oeste 37 Oeste 0 998.6 1.7 68
2019-04-04 09:00:00 15.6 16 Oeste 33 Oeste 0 998.2 1.5 71
2019-04-04 08:00:00 14.8 15 Oeste 31 Oeste 0 997.4 0.7 69
2019-04-04 07:00:00 15.1 18 Oeste 32 Oeste 0 996.9 0.1 61
2019-04-04 06:00:00 15.4 18 Oeste 34 Oeste 0 996.7 -0.5 56
2019-04-04 05:00:00 15.7 18 Oeste 34 Sudoeste 0 996.7 -1 56
2019-04-04 04:00:00 16.1 18 Oeste 31 Oeste 0 996.8 -1.4 56
2019-04-04 03:00:00 16.6 17 Oeste 30 Oeste 0 997.2 -1.1 54
2019-04-04 02:00:00 17.1 15 Oeste 38 Sudoeste 0 997.7 -0.4 52
2019-04-04 01:00:00 17.3 16 Oeste 38 Oeste 0 998.2 0.5 56
2019-04-04 00:00:00 18.1 15 Oeste 26 Sudoeste 0 998.3 0.8 54
2019-04-03 23:00:00 19.2 14 Oeste 27 Oeste 0 998.1 0.5 45
2019-04-03 22:00:00 19.2 13 Oeste 24 Oeste 0 997.7 -0.5 41
2019-04-03 21:00:00 19.2 16 Sudoeste 32 Oeste 0 997.5 -0.9 38
2019-04-03 20:00:00 19.7 18 Oeste 30 Oeste 0 997.6 -1.5 40
2019-04-03 19:00:00 19.8 17 Oeste 32 Oeste 0 998.2 -1.5 52
2019-04-03 18:00:00 19.4 19 Oeste 32 Oeste 0 998.4 -2.3 55
2019-04-03 17:00:00 19.9 9 Oeste 26 Sudoeste 0 999.1 -2 55
2019-04-03 16:00:00 19.9 8 Oeste 25 Noroeste 0 999.7 -2.3 49
2019-04-03 15:00:00 20.8 9 Oeste 21 Oeste 0 1000.7 -1.9 51
2019-04-03 14:00:00 19.8 10 Nordeste 14 Norte 0 1001.1 -1.6 57
2019-04-03 13:00:00 19.3 9 Nordeste 12 Nordeste 0 1002 -1 61
2019-04-03 12:00:00 18.6 8 Nordeste 17 Sudeste 0 1002.6 -1.5 62
2019-04-03 11:00:00 17.6 10 Nordeste 17 Este 0 1002.7 -2.2 69
2019-04-03 10:00:00 16.6 6 Norte 9 Noroeste 0 1003 -1.8 71
2019-04-03 09:00:00 14.2 4 Oeste 8 Noroeste 0 1004.1 -1 82
2019-04-03 08:00:00 13.5 4 Norte 10 Oeste 0 1004.9 -0.8 83
2019-04-03 07:00:00 13.9 4 Noroeste 12 Noroeste 0 1004.8 -1.2 79
2019-04-03 06:00:00 14.8 7 Oeste 15 Oeste 0 1005.1 -1.7 75
2019-04-03 05:00:00 13.3 6 Norte 14 Noroeste 0 1005.7 -1.3 78
2019-04-03 04:00:00 13.7 4 Noroeste 11 Noroeste 0 1006 -1.8 73
2019-04-03 03:00:00 14 9 Noroeste 12 Norte 0 1006.8 -1.3 77
2019-04-03 02:00:00 14.6 3 Noroeste 8 Oeste 0 1007 -1.2 78
2019-04-03 01:00:00 15 4 Oeste 8 Oeste 0 1007.8 -0.3 81
2019-04-03 00:00:00 15.6 4 Sudoeste 8 Sudoeste 0 1008.1 0 80
2019-04-02 23:00:00 16.2 4 Sudeste 10 Sudeste 0 1008.2 0 76
2019-04-02 22:00:00 16.6 6 Sudeste 9 Sudeste 0 1008.1 0.2 76
2019-04-02 21:00:00 16.9 4 Sudeste 9 Este 0 1008.1 0.2 74
2019-04-02 20:00:00 17.5 4 Sudeste 9 Sudeste 0 1008.2 0.2 70
2019-04-02 19:00:00 17.9 4 Este 13 Nordeste 0 1007.9 -0.5 61
2019-04-02 18:00:00 18.2 10 Nordeste 18 Este 0 1007.9 -1.1 61
2019-04-02 17:00:00 18.5 14 Nordeste 20 Nordeste 0 1008 -1.8 58
2019-04-02 16:00:00 18.9 14 Nordeste 21 Nordeste 0 1008.4 -1.7 61
2019-04-02 15:00:00 18.4 13 Nordeste 20 Nordeste 0 1009 -1.4 61
2019-04-02 14:00:00 18.5 12 Este 19 Este 0 1009.8 -0.8 57
2019-04-02 13:00:00 18.8 10 Este 15 Este 0 1010.1 -0.2 61
2019-04-02 12:00:00 18.1 9 Este 15 Nordeste 0 1010.4 0.1 67
2019-04-02 11:00:00 17.4 6 Este 10 Este 0 1010.6 0.6 71
2019-04-02 10:00:00 15.4 3 Nordeste 6 Nordeste 0 1010.3 0.3 78
2019-04-02 09:00:00 12.9 2 Noroeste 5 Noroeste 0 1010.3 0.3 82
2019-04-02 08:00:00 12.4 4 Sudoeste 9 Noroeste 0 1010 -0.2 80
2019-04-02 07:00:00 12.4 6 Noroeste 10 Noroeste 0 1010 -0.6 80
2019-04-02 06:00:00 13.2 5 Noroeste 9 Noroeste 0 1010 -0.8 77
2019-04-02 05:00:00 12.6 5 Sudoeste 7 Sudoeste 0 1010.2 -0.8 76
2019-04-02 04:00:00 13 0 Calma 5 Norte 0 1010.6 -0.5 76
2019-04-02 03:00:00 13.1 3 Noroeste 12 Noroeste 0 1010.8 -0.2 76
2019-04-02 02:00:00 13.5 4 Noroeste 9 Oeste 0 1011 0.5 75
2019-04-02 01:00:00 14.2 5 Sudoeste 7 Sudoeste 0 1011.1 1 74
2019-04-02 00:00:00 15.1 5 Noroeste 7 Noroeste 0 1011 1.6 72
2019-04-01 23:00:00 15.4 3 Sudoeste 4 Sur 0 1010.5 1.8 69
2019-04-01 22:00:00 16 4 Sudeste 9 Sudeste 0 1010.1 1.7 67
2019-04-01 21:00:00 16.6 6 Sudeste 13 Sudeste 0 1009.4 1.1 72
2019-04-01 20:00:00 17.3 9 Este 14 Este 0 1008.7 0.6 69
2019-04-01 19:00:00 18 10 Este 18 Sudeste 0 1008.4 -0.1 67
2019-04-01 18:00:00 18.9 13 Nordeste 22 Norte 0 1008.3 -0.4 54
2019-04-01 17:00:00 19.5 14 Norte 21 Nordeste 0 1008.1 -0.8 56
2019-04-01 16:00:00 19.8 14 Nordeste 18 Nordeste 0 1008.5 -0.8 57
2019-04-01 15:00:00 19.6 13 Nordeste 21 Este 0 1008.7 -0.6 55
2019-04-01 14:00:00 19.2 12 Nordeste 19 Nordeste 0 1008.9 -0.1 57
2019-04-01 13:00:00 18.7 14 Nordeste 19 Nordeste 0 1009.3 0.7 61
2019-04-01 12:00:00 18.8 13 Este 18 Este 0 1009.3 1.4 62
2019-04-01 11:00:00 18.3 8 Sudeste 12 Este 0 1009 1.5 69
2019-04-01 10:00:00 15.6 3 Este 5 Nordeste 0 1008.6 1.9 82
2019-04-01 09:00:00 -- 4 Sudoeste 6 Sur 0 1007.9 1.5 88
2019-04-01 08:00:00 11.9 2 Sur 8 Noroeste 0 1007.5 0.8 91
2019-04-01 07:00:00 12.1 2 Este 8 Oeste 0 1006.7 -0.2 91
2019-04-01 06:00:00 13 3 Noroeste 6 Sudoeste 0.2 1006.4 -1 89
2019-04-01 05:00:00 12.5 3 Sudoeste 10 Noroeste 0 1006.7 -0.9 91
2019-04-01 04:00:00 -- 2 Noroeste 8 Sudoeste 0 1006.9 -0.7 90
2019-04-01 03:00:00 -- 5 Sudoeste 9 Oeste 0 1007.4 -0.1 92
2019-04-01 02:00:00 -- 4 Noroeste 10 Noroeste 0 1007.6 0.7 95
2019-04-01 01:00:00 14.1 6 Sudeste 12 Sudeste 0 1007.6 1.4 93
2019-04-01 00:00:00 -- 4 Sudeste 7 Sudeste 0 1007.5 2.1 94
2019-03-31 23:00:00 -- 5 Sudoeste 7 Sur 0 1006.9 -- 94
2019-03-31 22:00:00 13.6 3 Sudoeste 8 Norte 0 1006.2 1.3 92
2019-03-31 21:00:00 14.6 6 Noroeste -- -- -- 1005.4 1.1 88
2019-03-31 20:00:00 -- -- -- -- -- -- -- -- --
2019-03-31 19:00:00 -- 15 Norte 24 Norte 0 1004.9 1.2 89
2019-03-31 18:00:00 -- 21 Norte 31 Norte 0.2 1004.3 0.4 90
2019-03-31 17:00:00 -- 18 Norte 28 Norte 0 1003.8 -0.7 91
2019-03-31 16:00:00 -- 16 Norte 25 Nordeste 0.2 1003.7 -1.1 91
2019-03-31 15:00:00 -- 16 Nordeste 24 Norte 0.2 1003.9 -1.1 94
2019-03-31 14:00:00 -- 15 Norte 24 Nordeste 0 1004.5 -0.4 95
2019-03-31 13:00:00 -- 18 Norte 24 Norte 0.2 1004.8 0.2 98
2019-03-31 12:00:00 -- 13 Norte 23 Nordeste 1.8 1005 0.6 99
2019-03-31 11:00:00 -- 14 Nordeste 31 Nordeste 17.2 1004.9 0.6 99
2019-03-31 10:00:00 -- 21 Nordeste 33 Nordeste 9 1004.6 0.3 98
2019-03-31 09:00:00 -- 19 Nordeste 30 Nordeste 1.8 1004.4 -0.2 98
2019-03-31 08:00:00 -- 16 Nordeste 32 Nordeste 6.4 1004.3 -0.9 98
2019-03-31 07:00:00 -- 13 Nordeste 26 Nordeste 5.2 1004.3 -1.8 97
2019-03-31 06:00:00 -- 20 Nordeste 33 Nordeste 0.6 1004.6 -2.4 96
2019-03-31 05:00:00 -- 20 Nordeste 30 Nordeste 0.4 1005.2 -2.7 95
2019-03-31 03:00:00 15.1 20 Este 30 Este 0 1007 -2.2 94
2019-03-31 01:00:00 14.8 18 Este 30 Este 0 1007.9 -2.5 94
2019-03-31 00:00:00 14.8 21 Nordeste 30 Nordeste 0 1008.3 -2.2 93
2019-03-30 23:00:00 14.9 14 Nordeste 23 Nordeste 0 1009.2 -0.7 92
2019-03-30 22:00:00 14.8 10 Este 21 Este 0 1010.4 0.2 90
2019-03-30 21:00:00 15.1 13 Este 21 Este 0 1010.5 0.7 90
2019-03-30 20:00:00 14.7 13 Este 19 Este 0 1009.9 1 91
2019-03-30 19:00:00 14.7 14 Este 27 Este 0 1010.2 0.9 90
2019-03-30 18:00:00 15.3 17 Este 28 Este 0 1009.8 0.2 86
2019-03-30 17:00:00 15.3 20 Nordeste 30 Nordeste 0 1008.9 -1.2 85
2019-03-30 16:00:00 15.2 19 Nordeste 32 Nordeste 0 1009.3 -1.8 84
2019-03-30 15:00:00 15.5 23 Este 37 Este 0 1009.6 -2.1 84
2019-03-30 14:00:00 15.4 23 Este 36 Este 0 1010.1 -2.2 85
2019-03-30 13:00:00 15.4 23 Este 40 Este 0 1011.1 -1.8 85
2019-03-30 12:00:00 15.9 27 Este 39 Este 0 1011.7 -1 83
2019-03-30 11:00:00 15.4 24 Este 37 Este 0 1012.3 -0.4 86
2019-03-30 10:00:00 15.2 22 Este 35 Este 0 1012.9 -0.2 86
2019-03-30 09:00:00 15.1 24 Este 36 Este 0 1012.7 -0.9 86
2019-03-30 08:00:00 14.6 22 Este 33 Este 0 1012.7 -1 86
2019-03-30 07:00:00 14.4 15 Este 28 Nordeste 0 1013.1 -1 85
2019-03-30 06:00:00 14.5 19 Este 30 Este 0 1013.6 -1.2 84
2019-03-30 05:00:00 14.6 17 Este 32 Este 0 1013.7 -1.5 83
2019-03-30 04:00:00 14.7 18 Este 30 Este 0 1014.1 -1.4 82
2019-03-30 03:00:00 14.6 20 Este 31 Este 0 1014.8 -1.1 81
2019-03-30 02:00:00 14.6 20 Este 32 Este 0 1015.2 -1.1 81
2019-03-30 01:00:00 14.6 20 Este 30 Este 0 1015.5 -0.8 81
2019-03-30 00:00:00 14.7 18 Este 33 Este 0 1015.9 -0.1 80
2019-03-29 23:00:00 14.8 19 Este 29 Este 0 1016.3 0.9 81
2019-03-29 22:00:00 14.8 21 Este 30 Este 0 1016.3 1 78
2019-03-29 21:00:00 14.9 18 Este 30 Este 0 1016 1 79
2019-03-29 20:00:00 14.8 20 Este 31 Este 0 1015.4 1 77
2019-03-29 19:00:00 15.2 22 Este 33 Este 0 1015.3 0.9 77
2019-03-29 18:00:00 15.5 22 Este 32 Este 0 1015 0.1 73
2019-03-29 17:00:00 15.8 21 Nordeste 36 Este 0 1014.4 -1.1 72
2019-03-29 16:00:00 16 22 Nordeste 34 Este 0 1014.4 -1.3 71
2019-03-29 15:00:00 16.4 20 Nordeste 30 Nordeste 0 1014.9 -1.5 68
2019-03-29 14:00:00 16.2 19 Este 31 Nordeste 0 1015.5 -1.6 69
2019-03-29 13:00:00 15.6 22 Nordeste 34 Nordeste 0 1015.7 -1.4 74
2019-03-29 12:00:00 15.7 21 Nordeste 30 Este 0 1016.4 -0.2 73
2019-03-29 11:00:00 15.1 20 Este 30 Este 0 1017.1 0.4 76
2019-03-29 10:00:00 15 19 Nordeste 32 Nordeste 0 1017.1 0.9 76
2019-03-29 09:00:00 14.6 21 Este 33 Nordeste 0 1016.6 0.6 78
2019-03-29 08:00:00 14.4 18 Este 28 Este 0 1016.7 1.1 79
2019-03-29 07:00:00 14.2 18 Este 27 Este 0 1016.2 0.3 79
2019-03-29 06:00:00 14.3 15 Este 28 Este 0 1016 -0.2 82
2019-03-29 05:00:00 14.1 22 Este 32 Nordeste 0 1015.6 -1 81
2019-03-29 04:00:00 14.1 21 Este 31 Nordeste 0 1015.9 -1.1 80
2019-03-29 03:00:00 14 20 Este 29 Este 0 1016.2 -1.2 78
2019-03-29 02:00:00 14 19 Este 29 Este 0 1016.6 -1.1 78
2019-03-29 01:00:00 14 19 Este 36 Este 0 1017 -0.8 75
2019-03-29 00:00:00 14.1 21 Este 31 Este 0 1017.4 -0.1 75
2019-03-28 23:00:00 14.2 23 Este 36 Este 0 1017.7 0.9 76
2019-03-28 22:00:00 14.4 25 Este 37 Este 0 1017.8 1.3 74
2019-03-28 21:00:00 14.6 22 Este 44 Este 0 1017.5 1.2 73
2019-03-28 20:00:00 14.6 29 Este 43 Este 0 1016.8 0.4 68
2019-03-28 19:00:00 15.1 27 Nordeste 42 Nordeste 0 1016.5 -0.3 68
2019-03-28 18:00:00 15.7 28 Nordeste 44 Este 0 1016.3 -0.9 63
2019-03-28 17:00:00 16.1 28 Nordeste 40 Nordeste 0 1016.4 -1.4 65
2019-03-28 16:00:00 16.3 24 Este 41 Este 0 1016.8 -2.1 68
2019-03-28 15:00:00 16.4 27 Nordeste 38 Este 0 1017.2 -1.7 65
2019-03-28 14:00:00 17 24 Este 35 Este 0 1017.8 -1.4 61
2019-03-28 13:00:00 16.9 23 Este 33 Este 0 1018.9 -0.1 57
2019-03-28 12:00:00 17 21 Este 32 Este 0 1018.9 0.1 57
2019-03-28 11:00:00 16.5 18 Este 27 Sudeste 0 1019.2 1 63
2019-03-28 10:00:00 16.1 15 Este 24 Sudeste 0 1019 1.6 65
2019-03-28 09:00:00 15.3 12 Sudeste 21 Sudeste 0 1018.8 1.8 67
2019-03-28 08:00:00 13.6 8 Sudeste 17 Sur 0 1018.2 1.4 75
2019-03-28 07:00:00 13 11 Sudeste 20 Sudeste 0 1017.4 0.5 78
2019-03-28 06:00:00 13.9 15 Este 36 Este 0 1017 -0.2 76
2019-03-28 05:00:00 14.2 23 Este 35 Este 0 1016.8 -0.9 73
2019-03-28 04:00:00 14.2 19 Este 33 Este 0 1016.9 -1.1 75
2019-03-28 03:00:00 14.1 21 Este 28 Este 0 1017.2 -0.7 73
2019-03-28 02:00:00 14.1 20 Este 33 Nordeste 0 1017.7 -0.1 69
2019-03-28 01:00:00 14.2 19 Este 33 Este 0 1018 0.4 68
2019-03-28 00:00:00 14.2 22 Este 37 Este 0 1017.9 1 70
2019-03-27 23:00:00 14.2 22 Este 38 Nordeste 0 1017.8 1.7 70
2019-03-27 22:00:00 14.3 24 Este 42 Este 0 1017.6 2.4 69
2019-03-27 21:00:00 14.4 28 Nordeste 42 Este 0 1016.9 2.7 66
2019-03-27 20:00:00 14.5 22 Nordeste 45 Nordeste 0 1016.1 2.3 67
2019-03-27 19:00:00 14.6 24 Nordeste 46 Este 0 1015.2 1.5 64
2019-03-27 18:00:00 15 31 Este 49 Nordeste 0 1014.2 0.3 58
2019-03-27 17:00:00 15.6 30 Nordeste 48 Nordeste 0 1013.8 -0.2 56
2019-03-27 16:00:00 15.8 31 Nordeste 53 Este 0 1013.7 -0.3 57
2019-03-27 15:00:00 15.5 30 Nordeste 49 Nordeste 0 1013.9 0.2 62
2019-03-27 14:00:00 15.3 30 Este 49 Este 0 1014 0.5 61
2019-03-27 13:00:00 15.8 35 Este 54 Este 0 1014 1 58
2019-03-27 12:00:00 15.4 33 Este 54 Este 0 1013.7 0.8 58
2019-03-27 11:00:00 14.7 35 Este 49 Este 0 1013.5 1.2 60
2019-03-27 10:00:00 13.7 32 Este 51 Este 0 1013 1.5 67
2019-03-27 09:00:00 13.3 33 Este 48 Nordeste 0 1012.9 1.3 69
2019-03-27 08:00:00 13.9 31 Este 48 Este 0 1012.3 1.3 69
2019-03-27 07:00:00 13.5 31 Este 46 Este 1 1011.5 0.6 70
2019-03-27 06:00:00 13.6 30 Este 48 Nordeste 0.4 1011.6 0.4 76
2019-03-27 05:00:00 14.6 35 Este 60 Este 0 1011 -0.6 65
2019-03-27 04:00:00 14.8 35 Este 56 Este 0 1010.9 -0.7 64
2019-03-27 03:00:00 14.9 37 Este 58 Este 0 1011.2 -0.5 58
2019-03-27 02:00:00 15.1 41 Este 62 Este 0 1011.6 0.2 54
2019-03-27 01:00:00 14.8 38 Este 59 Nordeste 0 1011.6 0.8 58
2019-03-27 00:00:00 15 31 Este 54 Este 0 1011.7 1.7 62
2019-03-26 23:00:00 14.9 35 Este 55 Nordeste 0 1011.4 2.6 68
2019-03-26 22:00:00 14.9 35 Este 47 Nordeste 0 1010.8 2.9 70
2019-03-26 21:00:00 15.1 32 Este 53 Este 0 1010 2.4 70
2019-03-26 20:00:00 15 34 Este 51 Este 0 1008.8 1.8 76
2019-03-26 19:00:00 15.3 32 Este 53 Este 0 1007.9 1.1 78
2019-03-26 18:00:00 15.8 28 Nordeste 49 Este 0 1007.6 0.7 78
2019-03-26 17:00:00 16 30 Nordeste 46 Este 0 1007 -0.5 80
2019-03-26 16:00:00 16.3 28 Este 44 Nordeste 0 1006.8 -1.1 79
2019-03-26 15:00:00 16.1 29 Nordeste 49 Este 0 1006.9 -1.2 82
2019-03-26 14:00:00 16.1 26 Este 42 Nordeste 0 1007.5 -0.4 83
2019-03-26 13:00:00 16.3 26 Nordeste 38 Este 0 1007.9 0.5 83
2019-03-26 12:00:00 16.2 23 Este 36 Este 0 1008.1 0.9 85
2019-03-26 11:00:00 16.1 23 Este 33 Este 0 1007.9 1.2 87
2019-03-26 10:00:00 15.8 23 Este 32 Este 0 1007.4 1 89
2019-03-26 09:00:00 15.8 21 Este 32 Este 0 1007.2 1 89
2019-03-26 08:00:00 15.6 19 Este 27 Este 0 1006.7 0.4 90
2019-03-26 07:00:00 15.4 19 Este 25 Este 0 1006.4 -0.2 89
2019-03-26 06:00:00 15.5 18 Este 24 Este 0 1006.2 -0.9 88
2019-03-26 05:00:00 15.6 13 Este 21 Este 0 1006.3 -1.3 90
2019-03-26 04:00:00 15.5 13 Este 19 Este 0 1006.6 -1.9 90
2019-03-26 03:00:00 15.4 13 Este 21 Este 0 1007.1 -1.5 90
2019-03-26 02:00:00 15.4 12 Este 17 Este 0 1007.6 -1.2 90
2019-03-26 01:00:00 15.1 8 Este 12 Este 0 1008.5 -0.5 91
2019-03-26 00:00:00 15 8 Sudeste 12 Sudeste 0 1008.6 -0.1 91
2019-03-25 23:00:00 15.3 9 Sudeste 16 Sudeste 0 1008.8 0.3 89
2019-03-25 22:00:00 15.5 11 Este 17 Este 0 1009 0.5 89
2019-03-25 21:00:00 15.6 8 Este 15 Sudeste 0 1008.7 0.3 89
2019-03-25 20:00:00 15.7 9 Este 14 Este 0 1008.5 -0.1 88
2019-03-25 19:00:00 16 11 Este 18 Este 0 1008.5 -0.5 87
2019-03-25 18:00:00 16.6 13 Este 21 Este 0 1008.4 -1.2 85
2019-03-25 17:00:00 16.8 15 Este 25 Este 0 1008.6 -2.1 83
2019-03-25 16:00:00 17.3 15 Este 24 Este 0 1009 -2.5 79
2019-03-25 15:00:00 17.2 16 Este 23 Nordeste 0 1009.6 -2.2 81
2019-03-25 14:00:00 17.4 17 Este 27 Este 0 1010.7 -1.4 80
2019-03-25 13:00:00 16.5 18 Nordeste 25 Nordeste 0 1011.5 -0.6 82
2019-03-25 12:00:00 16.7 17 Este 25 Nordeste 0 1011.8 0.1 83
2019-03-25 11:00:00 16.2 14 Nordeste 22 Nordeste 0 1012.1 0.4 87
2019-03-25 10:00:00 15.9 15 Nordeste 21 Nordeste 0 1012.1 0.8 90
2019-03-25 09:00:00 15.6 14 Nordeste 20 Nordeste 0 1011.7 0.5 91
2019-03-25 08:00:00 15.3 9 Este 15 Nordeste 0 1011.7 0.5 92
2019-03-25 07:00:00 15.1 9 Nordeste 14 Nordeste 0 1011.3 0.2 93
2019-03-25 06:00:00 15.1 6 Nordeste 13 Nordeste 0 1011.2 -0.6 93
2019-03-25 05:00:00 15 7 Nordeste 14 Nordeste 0 1011.2 -1.2 93
2019-03-25 04:00:00 14.7 3 Este 8 Este 0 1011.1 -1.7 93
2019-03-25 03:00:00 14.5 3 Norte 5 Norte 0 1011.8 -1.5 91
2019-03-25 02:00:00 14 0 Calma 6 Norte 0 1012.4 -1.2 90
2019-03-25 01:00:00 14 5 Oeste 8 Sudoeste 0 1012.8 -1.1 88
2019-03-25 00:00:00 14.2 5 Sudoeste 7 Sudoeste 0 1013.3 -0.3 88